Allegro — J8B5341 — position and weather

sailwx.info

Track history (hours):
 
Tides and Currents Weather Stations Pressure Air Temp Water Temp Dewpoint Dewpoint Depression Visibility Wind Speed Wind Dir Waves Ship Positions

Allegro

Last reported at 2017-Sep-24 19:00 UTC. Time now 2017-Sep-24 19:16 UTC.
Position N 26°07' W 080°05'.

Length 100 m; draft 4.2 m.

Type: Ship. MMSI: 376609000.

Date/timePositionNaut miles runAvg speedWind from/ knotsBaromVisibWave heightAir tempDewpointWater temp
2017-Sep-24 19:00N 26°07' W 080°05'0 0.0
2017-Sep-24 18:30N 26°07' W 080°05'0 0.0
2017-Sep-24 17:59N 26°07' W 080°05'0 0.0
2017-Sep-24 17:29N 26°07' W 080°05'0 0.0
2017-Sep-24 16:59N 26°07' W 080°05'0 0.0
2017-Sep-24 16:29N 26°07' W 080°05'0 0.0
2017-Sep-24 15:58N 26°07' W 080°05'0 0.0
2017-Sep-24 15:28N 26°07' W 080°05'0 0.0
2017-Sep-24 14:58N 26°07' W 080°05'0 0.0
2017-Sep-24 14:28N 26°07' W 080°05'0 0.1
2017-Sep-24 13:58N 26°07' W 080°05'0 0.2
2017-Sep-24 13:30N 26°07' W 080°05'0 0.4
2017-Sep-24 13:00N 26°07' W 080°05'0 0.3
2017-Sep-24 12:30N 26°07' W 080°05'0 0.0
2017-Sep-24 12:00N 26°07' W 080°05'0 0.1
2017-Sep-24 11:29N 26°07' W 080°05'0 0.1
2017-Sep-24 10:59N 26°07' W 080°05'0 0.1
2017-Sep-24 10:29N 26°07' W 080°05'0 0.2
2017-Sep-24 09:59N 26°07' W 080°05'0 0.1
2017-Sep-24 09:29N 26°07' W 080°05'0 0.0
2017-Sep-24 08:58N 26°07' W 080°05'0 0.0
2017-Sep-24 08:28N 26°07' W 080°05'0 0.1
2017-Sep-24 07:58N 26°07' W 080°05'0 0.1
2017-Sep-24 07:28N 26°07' W 080°05'0 0.0
2017-Sep-24 07:01N 26°07' W 080°05'0 0.0
2017-Sep-24 06:30N 26°07' W 080°05'0 0.0
2017-Sep-24 06:00N 26°07' W 080°05'0 0.0
2017-Sep-24 05:30N 26°07' W 080°05'0 0.0
2017-Sep-24 05:00N 26°07' W 080°05'0 0.0
2017-Sep-24 04:23N 26°07' W 080°05'0 0.0
2017-Sep-24 03:59N 26°07' W 080°05'0 0.0
2017-Sep-24 03:29N 26°07' W 080°05'0 0.0
2017-Sep-24 02:59N 26°07' W 080°05'0 0.0
2017-Sep-24 02:29N 26°07' W 080°05'0 0.0
2017-Sep-24 01:55N 26°07' W 080°05'0 0.0
2017-Sep-24 01:25N 26°07' W 080°05'0 0.0
2017-Sep-24 00:58N 26°07' W 080°05'0 0.0
2017-Sep-24 00:28N 26°07' W 080°05'0 0.0
2017-Sep-23 23:57N 26°07' W 080°05'0 0.1
2017-Sep-23 23:29N 26°07' W 080°05'0 0.0
2017-Sep-23 23:00N 26°07' W 080°05'0 0.0
2017-Sep-23 22:30N 26°07' W 080°05'0 0.0
2017-Sep-23 21:57N 26°07' W 080°05'0 0.0
2017-Sep-23 21:29N 26°07' W 080°05'0 0.0
2017-Sep-23 20:59N 26°07' W 080°05'0 0.0
2017-Sep-23 20:29N 26°07' W 080°05'0 0.0
2017-Sep-23 19:59N 26°07' W 080°05'  
2017-Sep-21 02:15N 26°08' W 079°29'311.5
2017-Sep-21 02:00N 26°08' W 079°32'611.7
2017-Sep-21 01:30N 26°08' W 079°38'611.6
2017-Sep-21 01:01N 26°08' W 079°45'611.5
2017-Sep-21 00:30N 26°07' W 079°51'611.4
2017-Sep-21 00:00N 26°07' W 079°58'611.5
2017-Sep-20 23:31N 26°07' W 080°04'3 6.3
2017-Sep-20 23:01N 26°05' W 080°07'1 1.1
2017-Sep-20 22:24N 26°04' W 080°07'0 0.0
2017-Sep-20 21:48N 26°04' W 080°07'0 0.1
2017-Sep-20 21:27N 26°04' W 080°07'0 0.0
2017-Sep-20 20:59N 26°04' W 080°07'0 0.0
2017-Sep-20 20:26N 26°04' W 080°07'0 0.0
2017-Sep-20 19:53N 26°04' W 080°07'0 0.0
2017-Sep-20 19:29N 26°04' W 080°07'0 0.0
2017-Sep-20 18:58N 26°04' W 080°07'0 0.0
2017-Sep-20 18:28N 26°04' W 080°07'2 3.5
2017-Sep-20 18:00N 26°06' W 080°06'3 5.2
2017-Sep-20 17:30N 26°06' W 080°03'1 2.8
2017-Sep-20 17:00N 26°06' W 080°02'3 5.0
2017-Sep-20 16:30N 26°06' W 079°59'3 5.5
2017-Sep-20 16:00N 26°07' W 079°56'4 7.4
2017-Sep-20 15:30N 26°07' W 079°52'3 6.4
2017-Sep-20 15:00N 26°07' W 079°48'7 6.8
2017-Sep-20 14:00N 26°08' W 079°41'4 7.1
2017-Sep-20 13:30N 26°08' W 079°37'4 7.2
2017-Sep-20 13:00N 26°09' W 079°33'4 7.2
2017-Sep-20 12:30N 26°08' W 079°29'1 0.0
2017-Sep-19 01:51N 26°07' W 079°28'411.9
2017-Sep-19 01:30N 26°07' W 079°33'611.9
2017-Sep-19 01:00N 26°07' W 079°39'612.4
2017-Sep-19 00:30N 26°06' W 079°46'612.6
2017-Sep-19 00:00N 26°05' W 079°53'711.8
2017-Sep-18 23:24N 26°05' W 080°01'510.3
2017-Sep-18 22:54N 26°06' W 080°07'2 4.0
2017-Sep-18 22:30N 26°04' W 080°07'0 0.1
2017-Sep-18 21:55N 26°04' W 080°07'0 0.0
2017-Sep-18 21:25N 26°04' W 080°07'0 0.0
2017-Sep-18 20:55N 26°04' W 080°07'0 0.0
2017-Sep-18 19:54N 26°04' W 080°07'0 0.0
2017-Sep-18 19:27N 26°04' W 080°07'0 0.0
2017-Sep-18 18:57N 26°04' W 080°07'0 0.0
2017-Sep-18 18:30N 26°04' W 080°07'0 0.0
2017-Sep-18 17:53N 26°04' W 080°07'0 0.0
2017-Sep-18 17:29N 26°04' W 080°07'0 0.0
2017-Sep-18 16:56N 26°04' W 080°07'0 0.0
2017-Sep-18 16:30N 26°04' W 080°07'2 3.4
2017-Sep-18 16:00N 26°06' W 080°06'2 3.3
2017-Sep-18 15:25N 26°07' W 080°05'0 0.0
2017-Sep-18 14:51N 26°07' W 080°05'0 0.0
2017-Sep-18 14:30N 26°07' W 080°05'0 0.0
2017-Sep-18 14:00N 26°07' W 080°05'0 0.0
2017-Sep-18 13:27N 26°07' W 080°05'0 0.0
2017-Sep-18 12:56N 26°07' W 080°05'0 0.0
2017-Sep-18 12:20N 26°07' W 080°05'0 0.0
2017-Sep-18 11:59N 26°07' W 080°05'0 0.0
2017-Sep-18 11:29N 26°07' W 080°05'0 0.0
2017-Sep-18 10:53N 26°07' W 080°05'0 0.0
2017-Sep-18 10:22N 26°07' W 080°05'0 0.0
2017-Sep-18 09:58N 26°07' W 080°05'0 0.0
2017-Sep-18 09:28N 26°07' W 080°05'0 0.0
2017-Sep-18 08:58N 26°07' W 080°05'0 0.0
2017-Sep-18 08:28N 26°07' W 080°05'0 0.0
2017-Sep-18 08:00N 26°07' W 080°05'0 0.0
2017-Sep-18 07:30N 26°07' W 080°05'0 0.0
2017-Sep-18 07:00N 26°07' W 080°05'0 0.0
2017-Sep-18 06:27N 26°07' W 080°05'0 0.0
2017-Sep-18 05:56N 26°07' W 080°05'0 0.0
2017-Sep-18 05:29N 26°07' W 080°05'0 0.0
2017-Sep-18 04:59N 26°07' W 080°05'0 0.0
2017-Sep-18 04:29N 26°07' W 080°05'0 0.0
2017-Sep-18 03:50N 26°07' W 080°05'0 0.0
2017-Sep-17 13:10N 26°07' W 080°05'0 0.1
2017-Sep-17 12:58N 26°07' W 080°05'0 0.0
2017-Sep-17 12:28N 26°07' W 080°05'0 0.0
2017-Sep-17 11:58N 26°07' W 080°05'0 0.0
2017-Sep-17 11:30N 26°07' W 080°05'0 0.0
2017-Sep-17 11:00N 26°07' W 080°05'0 0.0
2017-Sep-17 10:30N 26°07' W 080°05'0 0.0
2017-Sep-17 10:00N 26°07' W 080°05'0 0.0
2017-Sep-17 09:30N 26°07' W 080°05'0 0.0
2017-Sep-17 08:59N 26°07' W 080°05'0 0.1
2017-Sep-17 08:29N 26°07' W 080°05'0 0.0
2017-Sep-17 07:59N 26°07' W 080°05'0 0.0
2017-Sep-17 07:29N 26°07' W 080°05'0 0.1
2017-Sep-17 06:55N 26°07' W 080°05'0 0.0
2017-Sep-17 06:28N 26°07' W 080°05'0 0.0
2017-Sep-17 05:58N 26°07' W 080°05'0 0.0
2017-Sep-17 05:28N 26°07' W 080°05'0 0.0
2017-Sep-17 04:58N 26°07' W 080°05'0 0.0
2017-Sep-17 04:30N 26°07' W 080°05'0 0.0
2017-Sep-17 04:00N 26°07' W 080°05'0 0.0
2017-Sep-17 03:30N 26°07' W 080°05'0 0.0
2017-Sep-17 03:00N 26°07' W 080°05'0 0.0
2017-Sep-17 02:30N 26°07' W 080°05'0 0.0
2017-Sep-17 01:59N 26°07' W 080°05'0 0.0
2017-Sep-17 01:29N 26°07' W 080°05'0 0.0
2017-Sep-17 00:59N 26°07' W 080°05'0 0.0
2017-Sep-17 00:26N 26°07' W 080°05'0 0.0
2017-Sep-16 23:58N 26°07' W 080°05'0 0.0
2017-Sep-16 23:28N 26°07' W 080°05'0 0.0
2017-Sep-16 22:58N 26°07' W 080°05'0 0.0
2017-Sep-16 22:28N 26°07' W 080°05'0 0.0
2017-Sep-16 21:58N 26°07' W 080°05'0 0.0
2017-Sep-16 21:30N 26°07' W 080°05'0 0.0
2017-Sep-16 21:00N 26°07' W 080°05'0 0.0
2017-Sep-16 20:30N 26°07' W 080°05'0 0.0
2017-Sep-16 20:00N 26°07' W 080°05'0 0.0
2017-Sep-16 19:30N 26°07' W 080°05'0 0.0
2017-Sep-16 18:59N 26°07' W 080°05'0 0.0
2017-Sep-16 18:29N 26°07' W 080°05'0 0.0
2017-Sep-16 17:56N 26°07' W 080°05'0 0.0
2017-Sep-16 17:29N 26°07' W 080°05'0 0.0
2017-Sep-16 16:59N 26°07' W 080°05'0 0.0
2017-Sep-16 16:28N 26°07' W 080°05'0 0.0
2017-Sep-16 15:58N 26°07' W 080°05'0 0.0
2017-Sep-16 15:25N 26°07' W 080°05'0 0.0
2017-Sep-16 14:58N 26°07' W 080°05'0 0.0
2017-Sep-16 14:30N 26°07' W 080°05'0 0.0
2017-Sep-16 14:00N 26°07' W 080°05'0 0.0
2017-Sep-16 13:30N 26°07' W 080°05'0 0.0
2017-Sep-16 13:00N 26°07' W 080°05'0 0.1
2017-Sep-16 12:30N 26°07' W 080°05'0 0.1
2017-Sep-16 11:59N 26°07' W 080°05'0 0.0
2017-Sep-16 11:26N 26°07' W 080°05'0 0.0
2017-Sep-16 10:59N 26°07' W 080°05'0 0.0
2017-Sep-16 10:26N 26°07' W 080°05'0 0.0
2017-Sep-16 09:58N 26°07' W 080°05'0 0.0
2017-Sep-16 09:28N 26°07' W 080°05'0 0.0
2017-Sep-16 08:58N 26°07' W 080°05'0 0.0
2017-Sep-16 08:28N 26°07' W 080°05'0 0.0
2017-Sep-16 07:55N 26°07' W 080°05'0 0.0
2017-Sep-16 07:30N 26°07' W 080°05'0 0.0
2017-Sep-16 07:00N 26°07' W 080°05'0 0.0
2017-Sep-16 06:30N 26°07' W 080°05'0 0.0
2017-Sep-16 06:00N 26°07' W 080°05'0 0.0
2017-Sep-16 05:29N 26°07' W 080°05'0 0.0
2017-Sep-16 04:59N 26°07' W 080°05'0 0.0
2017-Sep-16 04:26N 26°07' W 080°05'0 0.0
2017-Sep-16 03:59N 26°07' W 080°05'0 0.0
2017-Sep-16 03:29N 26°07' W 080°05'0 0.0
2017-Sep-16 02:58N 26°07' W 080°05'0 0.0
2017-Sep-16 02:28N 26°07' W 080°05'0 0.0
2017-Sep-16 01:58N 26°07' W 080°05'0 0.0
2017-Sep-16 01:28N 26°07' W 080°05'0 0.0
2017-Sep-16 00:58N 26°07' W 080°05'0 0.0
2017-Sep-16 00:30N 26°07' W 080°05'0 0.0
2017-Sep-16 00:00N 26°07' W 080°05'0 0.0
2017-Sep-15 23:30N 26°07' W 080°05'0 0.0
2017-Sep-15 23:00N 26°07' W 080°05'0 0.0
2017-Sep-15 22:29N 26°07' W 080°05'0 0.0
2017-Sep-15 21:59N 26°07' W 080°05'0 0.0
2017-Sep-15 21:29N 26°07' W 080°05'0 0.0
2017-Sep-15 20:59N 26°07' W 080°05'0 0.0
2017-Sep-15 20:29N 26°07' W 080°05'0 0.0
2017-Sep-15 19:58N 26°07' W 080°05'0 0.0
2017-Sep-15 19:28N 26°07' W 080°05'0 0.0
2017-Sep-15 18:58N 26°07' W 080°05'0 0.0
2017-Sep-15 18:28N 26°07' W 080°05'0 0.0
2017-Sep-15 18:00N 26°07' W 080°05'0 0.0
2017-Sep-15 17:30N 26°07' W 080°05'0 0.0
2017-Sep-15 17:00N 26°07' W 080°05'0 0.1
2017-Sep-15 16:30N 26°07' W 080°05'0 0.0
2017-Sep-15 16:00N 26°07' W 080°05'0 0.0
2017-Sep-15 15:29N 26°07' W 080°05'0 0.1
2017-Sep-15 14:59N 26°07' W 080°05'0 0.0
2017-Sep-15 14:29N 26°07' W 080°05'0 0.0
2017-Sep-15 13:59N 26°07' W 080°05'0 0.0
2017-Sep-15 13:26N 26°07' W 080°05'0 0.0
2017-Sep-15 12:49N 26°07' W 080°05'0 0.1
2017-Sep-15 12:28N 26°07' W 080°05'0 0.0
2017-Sep-15 11:58N 26°07' W 080°05'0 0.0
2017-Sep-15 11:25N 26°07' W 080°05'0 0.0
2017-Sep-15 10:54N 26°07' W 080°05'0 0.0
2017-Sep-15 10:30N 26°07' W 080°05'0 0.0
2017-Sep-15 10:00N 26°07' W 080°05'0 0.0
2017-Sep-15 09:27N 26°07' W 080°05'0 0.0
2017-Sep-15 09:00N 26°07' W 080°05'0 0.0
2017-Sep-15 08:29N 26°07' W 080°05'0 0.0
2017-Sep-15 07:59N 26°07' W 080°05'0 0.0
2017-Sep-15 07:29N 26°07' W 080°05'0 0.0
2017-Sep-15 06:59N 26°07' W 080°05'0 0.0
2017-Sep-15 06:22N 26°07' W 080°05'0 0.0
2017-Sep-15 05:49N 26°07' W 080°05'0 0.1
2017-Sep-15 05:25N 26°07' W 080°05'0 0.0
2017-Sep-15 04:58N 26°07' W 080°05'0 0.0
2017-Sep-15 04:25N 26°07' W 080°05'0 0.0
2017-Sep-15 03:51N 26°07' W 080°05'0 0.0
2017-Sep-15 03:30N 26°07' W 080°05'0 0.0
2017-Sep-15 03:00N 26°07' W 080°05'0 0.0
2017-Sep-15 02:27N 26°07' W 080°05'0 0.3
2017-Sep-15 01:53N 26°07' W 080°05'0 0.0
2017-Sep-15 01:20N 26°07' W 080°05'0 0.0
2017-Sep-15 00:59N 26°07' W 080°05'0 0.0
2017-Sep-15 00:29N 26°07' W 080°05'0 0.0
2017-Sep-14 23:56N 26°07' W 080°05'0 0.1
2017-Sep-14 23:22N 26°07' W 080°05'0 0.0
2017-Sep-14 22:49N 26°07' W 080°05'0 0.1
2017-Sep-14 22:28N 26°07' W 080°05'0 0.0
2017-Sep-14 21:55N 26°07' W 080°05'0 0.1
2017-Sep-14 21:25N 26°07' W 080°05'0 0.0
2017-Sep-14 20:51N 26°07' W 080°05'0 0.0
2017-Sep-14 20:30N 26°07' W 080°05'0 0.0
2017-Sep-14 19:57N 26°07' W 080°05'0 0.0
2017-Sep-14 19:27N 26°07' W 080°05'  
Track history (hours):
 
Tides and Currents Weather Stations Pressure Air Temp Water Temp Dewpoint Dewpoint Depression Visibility Wind Speed Wind Dir Waves Ship Positions

Allegro

Last reported at 2017-Sep-24 19:00 UTC. Time now 2017-Sep-24 19:16 UTC.
Position N 26°07' W 080°05'.

Length 100 m; draft 4.2 m.

Type: Ship. MMSI: 376609000.

Date/timePositionNaut miles runAvg speedWind from/ knotsBaromVisibWave heightAir tempDewpointWater temp
2017-Sep-24 19:00N 26°07' W 080°05'0 0.0
2017-Sep-24 18:30N 26°07' W 080°05'0 0.0
2017-Sep-24 17:59N 26°07' W 080°05'0 0.0
2017-Sep-24 17:29N 26°07' W 080°05'0 0.0
2017-Sep-24 16:59N 26°07' W 080°05'0 0.0
2017-Sep-24 16:29N 26°07' W 080°05'0 0.0
2017-Sep-24 15:58N 26°07' W 080°05'0 0.0
2017-Sep-24 15:28N 26°07' W 080°05'0 0.0
2017-Sep-24 14:58N 26°07' W 080°05'0 0.0
2017-Sep-24 14:28N 26°07' W 080°05'0 0.1
2017-Sep-24 13:58N 26°07' W 080°05'0 0.2
2017-Sep-24 13:30N 26°07' W 080°05'0 0.4
2017-Sep-24 13:00N 26°07' W 080°05'0 0.3
2017-Sep-24 12:30N 26°07' W 080°05'0 0.0
2017-Sep-24 12:00N 26°07' W 080°05'0 0.1
2017-Sep-24 11:29N 26°07' W 080°05'0 0.1
2017-Sep-24 10:59N 26°07' W 080°05'0 0.1
2017-Sep-24 10:29N 26°07' W 080°05'0 0.2
2017-Sep-24 09:59N 26°07' W 080°05'0 0.1
2017-Sep-24 09:29N 26°07' W 080°05'0 0.0
2017-Sep-24 08:58N 26°07' W 080°05'0 0.0
2017-Sep-24 08:28N 26°07' W 080°05'0 0.1
2017-Sep-24 07:58N 26°07' W 080°05'0 0.1
2017-Sep-24 07:28N 26°07' W 080°05'0 0.0
2017-Sep-24 07:01N 26°07' W 080°05'0 0.0
2017-Sep-24 06:30N 26°07' W 080°05'0 0.0
2017-Sep-24 06:00N 26°07' W 080°05'0 0.0
2017-Sep-24 05:30N 26°07' W 080°05'0 0.0
2017-Sep-24 05:00N 26°07' W 080°05'0 0.0
2017-Sep-24 04:23N 26°07' W 080°05'0 0.0
2017-Sep-24 03:59N 26°07' W 080°05'0 0.0
2017-Sep-24 03:29N 26°07' W 080°05'0 0.0
2017-Sep-24 02:59N 26°07' W 080°05'0 0.0
2017-Sep-24 02:29N 26°07' W 080°05'0 0.0
2017-Sep-24 01:55N 26°07' W 080°05'0 0.0
2017-Sep-24 01:25N 26°07' W 080°05'0 0.0
2017-Sep-24 00:58N 26°07' W 080°05'0 0.0
2017-Sep-24 00:28N 26°07' W 080°05'0 0.0
2017-Sep-23 23:57N 26°07' W 080°05'0 0.1
2017-Sep-23 23:29N 26°07' W 080°05'0 0.0
2017-Sep-23 23:00N 26°07' W 080°05'0 0.0
2017-Sep-23 22:30N 26°07' W 080°05'0 0.0
2017-Sep-23 21:57N 26°07' W 080°05'0 0.0
2017-Sep-23 21:29N 26°07' W 080°05'0 0.0
2017-Sep-23 20:59N 26°07' W 080°05'0 0.0
2017-Sep-23 20:29N 26°07' W 080°05'0 0.0
2017-Sep-23 19:59N 26°07' W 080°05'  
2017-Sep-21 02:15N 26°08' W 079°29'311.5
2017-Sep-21 02:00N 26°08' W 079°32'611.7
2017-Sep-21 01:30N 26°08' W 079°38'611.6
2017-Sep-21 01:01N 26°08' W 079°45'611.5
2017-Sep-21 00:30N 26°07' W 079°51'611.4
2017-Sep-21 00:00N 26°07' W 079°58'611.5
2017-Sep-20 23:31N 26°07' W 080°04'3 6.3
2017-Sep-20 23:01N 26°05' W 080°07'1 1.1
2017-Sep-20 22:24N 26°04' W 080°07'0 0.0
2017-Sep-20 21:48N 26°04' W 080°07'0 0.1
2017-Sep-20 21:27N 26°04' W 080°07'0 0.0
2017-Sep-20 20:59N 26°04' W 080°07'0 0.0
2017-Sep-20 20:26N 26°04' W 080°07'0 0.0
2017-Sep-20 19:53N 26°04' W 080°07'0 0.0
2017-Sep-20 19:29N 26°04' W 080°07'0 0.0
2017-Sep-20 18:58N 26°04' W 080°07'0 0.0
2017-Sep-20 18:28N 26°04' W 080°07'2 3.5
2017-Sep-20 18:00N 26°06' W 080°06'3 5.2
2017-Sep-20 17:30N 26°06' W 080°03'1 2.8
2017-Sep-20 17:00N 26°06' W 080°02'3 5.0
2017-Sep-20 16:30N 26°06' W 079°59'3 5.5
2017-Sep-20 16:00N 26°07' W 079°56'4 7.4
2017-Sep-20 15:30N 26°07' W 079°52'3 6.4
2017-Sep-20 15:00N 26°07' W 079°48'7 6.8
2017-Sep-20 14:00N 26°08' W 079°41'4 7.1
2017-Sep-20 13:30N 26°08' W 079°37'4 7.2
2017-Sep-20 13:00N 26°09' W 079°33'4 7.2
2017-Sep-20 12:30N 26°08' W 079°29'1 0.0
2017-Sep-19 01:51N 26°07' W 079°28'411.9
2017-Sep-19 01:30N 26°07' W 079°33'611.9
2017-Sep-19 01:00N 26°07' W 079°39'612.4
2017-Sep-19 00:30N 26°06' W 079°46'612.6
2017-Sep-19 00:00N 26°05' W 079°53'711.8
2017-Sep-18 23:24N 26°05' W 080°01'510.3
2017-Sep-18 22:54N 26°06' W 080°07'2 4.0
2017-Sep-18 22:30N 26°04' W 080°07'0 0.1
2017-Sep-18 21:55N 26°04' W 080°07'0 0.0
2017-Sep-18 21:25N 26°04' W 080°07'0 0.0
2017-Sep-18 20:55N 26°04' W 080°07'0 0.0
2017-Sep-18 19:54N 26°04' W 080°07'0 0.0
2017-Sep-18 19:27N 26°04' W 080°07'0 0.0
2017-Sep-18 18:57N 26°04' W 080°07'0 0.0
2017-Sep-18 18:30N 26°04' W 080°07'0 0.0
2017-Sep-18 17:53N 26°04' W 080°07'0 0.0
2017-Sep-18 17:29N 26°04' W 080°07'0 0.0
2017-Sep-18 16:56N 26°04' W 080°07'0 0.0
2017-Sep-18 16:30N 26°04' W 080°07'2 3.4
2017-Sep-18 16:00N 26°06' W 080°06'2 3.3
2017-Sep-18 15:25N 26°07' W 080°05'0 0.0
2017-Sep-18 14:51N 26°07' W 080°05'0 0.0
2017-Sep-18 14:30N 26°07' W 080°05'0 0.0
2017-Sep-18 14:00N 26°07' W 080°05'0 0.0
2017-Sep-18 13:27N 26°07' W 080°05'0 0.0
2017-Sep-18 12:56N 26°07' W 080°05'0 0.0
2017-Sep-18 12:20N 26°07' W 080°05'0 0.0
2017-Sep-18 11:59N 26°07' W 080°05'0 0.0
2017-Sep-18 11:29N 26°07' W 080°05'0 0.0
2017-Sep-18 10:53N 26°07' W 080°05'0 0.0
2017-Sep-18 10:22N 26°07' W 080°05'0 0.0
2017-Sep-18 09:58N 26°07' W 080°05'0 0.0
2017-Sep-18 09:28N 26°07' W 080°05'0 0.0
2017-Sep-18 08:58N 26°07' W 080°05'0 0.0
2017-Sep-18 08:28N 26°07' W 080°05'0 0.0
2017-Sep-18 08:00N 26°07' W 080°05'0 0.0
2017-Sep-18 07:30N 26°07' W 080°05'0 0.0
2017-Sep-18 07:00N 26°07' W 080°05'0 0.0
2017-Sep-18 06:27N 26°07' W 080°05'0 0.0
2017-Sep-18 05:56N 26°07' W 080°05'0 0.0
2017-Sep-18 05:29N 26°07' W 080°05'0 0.0
2017-Sep-18 04:59N 26°07' W 080°05'0 0.0
2017-Sep-18 04:29N 26°07' W 080°05'0 0.0
2017-Sep-18 03:50N 26°07' W 080°05'0 0.0
2017-Sep-17 13:10N 26°07' W 080°05'0 0.1
2017-Sep-17 12:58N 26°07' W 080°05'0 0.0
2017-Sep-17 12:28N 26°07' W 080°05'0 0.0
2017-Sep-17 11:58N 26°07' W 080°05'0 0.0
2017-Sep-17 11:30N 26°07' W 080°05'0 0.0
2017-Sep-17 11:00N 26°07' W 080°05'0 0.0
2017-Sep-17 10:30N 26°07' W 080°05'0 0.0
2017-Sep-17 10:00N 26°07' W 080°05'0 0.0
2017-Sep-17 09:30N 26°07' W 080°05'0 0.0
2017-Sep-17 08:59N 26°07' W 080°05'0 0.1
2017-Sep-17 08:29N 26°07' W 080°05'0 0.0
2017-Sep-17 07:59N 26°07' W 080°05'0 0.0
2017-Sep-17 07:29N 26°07' W 080°05'0 0.1
2017-Sep-17 06:55N 26°07' W 080°05'0 0.0
2017-Sep-17 06:28N 26°07' W 080°05'0 0.0
2017-Sep-17 05:58N 26°07' W 080°05'0 0.0
2017-Sep-17 05:28N 26°07' W 080°05'0 0.0
2017-Sep-17 04:58N 26°07' W 080°05'0 0.0
2017-Sep-17 04:30N 26°07' W 080°05'0 0.0
2017-Sep-17 04:00N 26°07' W 080°05'0 0.0
2017-Sep-17 03:30N 26°07' W 080°05'0 0.0
2017-Sep-17 03:00N 26°07' W 080°05'0 0.0
2017-Sep-17 02:30N 26°07' W 080°05'0 0.0
2017-Sep-17 01:59N 26°07' W 080°05'0 0.0
2017-Sep-17 01:29N 26°07' W 080°05'0 0.0
2017-Sep-17 00:59N 26°07' W 080°05'0 0.0
2017-Sep-17 00:26N 26°07' W 080°05'0 0.0
2017-Sep-16 23:58N 26°07' W 080°05'0 0.0
2017-Sep-16 23:28N 26°07' W 080°05'0 0.0
2017-Sep-16 22:58N 26°07' W 080°05'0 0.0
2017-Sep-16 22:28N 26°07' W 080°05'0 0.0
2017-Sep-16 21:58N 26°07' W 080°05'0 0.0
2017-Sep-16 21:30N 26°07' W 080°05'0 0.0
2017-Sep-16 21:00N 26°07' W 080°05'0 0.0
2017-Sep-16 20:30N 26°07' W 080°05'0 0.0
2017-Sep-16 20:00N 26°07' W 080°05'0 0.0
2017-Sep-16 19:30N 26°07' W 080°05'0 0.0
2017-Sep-16 18:59N 26°07' W 080°05'0 0.0
2017-Sep-16 18:29N 26°07' W 080°05'0 0.0
2017-Sep-16 17:56N 26°07' W 080°05'0 0.0
2017-Sep-16 17:29N 26°07' W 080°05'0 0.0
2017-Sep-16 16:59N 26°07' W 080°05'0 0.0
2017-Sep-16 16:28N 26°07' W 080°05'0 0.0
2017-Sep-16 15:58N 26°07' W 080°05'0 0.0
2017-Sep-16 15:25N 26°07' W 080°05'0 0.0
2017-Sep-16 14:58N 26°07' W 080°05'0 0.0
2017-Sep-16 14:30N 26°07' W 080°05'0 0.0
2017-Sep-16 14:00N 26°07' W 080°05'0 0.0
2017-Sep-16 13:30N 26°07' W 080°05'0 0.0
2017-Sep-16 13:00N 26°07' W 080°05'0 0.1
2017-Sep-16 12:30N 26°07' W 080°05'0 0.1
2017-Sep-16 11:59N 26°07' W 080°05'0 0.0
2017-Sep-16 11:26N 26°07' W 080°05'0 0.0
2017-Sep-16 10:59N 26°07' W 080°05'0 0.0
2017-Sep-16 10:26N 26°07' W 080°05'0 0.0
2017-Sep-16 09:58N 26°07' W 080°05'0 0.0
2017-Sep-16 09:28N 26°07' W 080°05'0 0.0
2017-Sep-16 08:58N 26°07' W 080°05'0 0.0
2017-Sep-16 08:28N 26°07' W 080°05'0 0.0
2017-Sep-16 07:55N 26°07' W 080°05'0 0.0
2017-Sep-16 07:30N 26°07' W 080°05'0 0.0
2017-Sep-16 07:00N 26°07' W 080°05'0 0.0
2017-Sep-16 06:30N 26°07' W 080°05'0 0.0
2017-Sep-16 06:00N 26°07' W 080°05'0 0.0
2017-Sep-16 05:29N 26°07' W 080°05'0 0.0
2017-Sep-16 04:59N 26°07' W 080°05'0 0.0
2017-Sep-16 04:26N 26°07' W 080°05'0 0.0
2017-Sep-16 03:59N 26°07' W 080°05'0 0.0
2017-Sep-16 03:29N 26°07' W 080°05'0 0.0
2017-Sep-16 02:58N 26°07' W 080°05'0 0.0
2017-Sep-16 02:28N 26°07' W 080°05'0 0.0
2017-Sep-16 01:58N 26°07' W 080°05'0 0.0
2017-Sep-16 01:28N 26°07' W 080°05'0 0.0
2017-Sep-16 00:58N 26°07' W 080°05'0 0.0
2017-Sep-16 00:30N 26°07' W 080°05'0 0.0
2017-Sep-16 00:00N 26°07' W 080°05'0 0.0
2017-Sep-15 23:30N 26°07' W 080°05'0 0.0
2017-Sep-15 23:00N 26°07' W 080°05'0 0.0
2017-Sep-15 22:29N 26°07' W 080°05'0 0.0
2017-Sep-15 21:59N 26°07' W 080°05'0 0.0
2017-Sep-15 21:29N 26°07' W 080°05'0 0.0
2017-Sep-15 20:59N 26°07' W 080°05'0 0.0
2017-Sep-15 20:29N 26°07' W 080°05'0 0.0
2017-Sep-15 19:58N 26°07' W 080°05'0 0.0
2017-Sep-15 19:28N 26°07' W 080°05'0 0.0
2017-Sep-15 18:58N 26°07' W 080°05'0 0.0
2017-Sep-15 18:28N 26°07' W 080°05'0 0.0
2017-Sep-15 18:00N 26°07' W 080°05'0 0.0
2017-Sep-15 17:30N 26°07' W 080°05'0 0.0
2017-Sep-15 17:00N 26°07' W 080°05'0 0.1
2017-Sep-15 16:30N 26°07' W 080°05'0 0.0
2017-Sep-15 16:00N 26°07' W 080°05'0 0.0
2017-Sep-15 15:29N 26°07' W 080°05'0 0.1
2017-Sep-15 14:59N 26°07' W 080°05'0 0.0
2017-Sep-15 14:29N 26°07' W 080°05'0 0.0
2017-Sep-15 13:59N 26°07' W 080°05'0 0.0
2017-Sep-15 13:26N 26°07' W 080°05'0 0.0
2017-Sep-15 12:49N 26°07' W 080°05'0 0.1
2017-Sep-15 12:28N 26°07' W 080°05'0 0.0
2017-Sep-15 11:58N 26°07' W 080°05'0 0.0
2017-Sep-15 11:25N 26°07' W 080°05'0 0.0
2017-Sep-15 10:54N 26°07' W 080°05'0 0.0
2017-Sep-15 10:30N 26°07' W 080°05'0 0.0
2017-Sep-15 10:00N 26°07' W 080°05'0 0.0
2017-Sep-15 09:27N 26°07' W 080°05'0 0.0
2017-Sep-15 09:00N 26°07' W 080°05'0 0.0
2017-Sep-15 08:29N 26°07' W 080°05'0 0.0
2017-Sep-15 07:59N 26°07' W 080°05'0 0.0
2017-Sep-15 07:29N 26°07' W 080°05'0 0.0
2017-Sep-15 06:59N 26°07' W 080°05'0 0.0
2017-Sep-15 06:22N 26°07' W 080°05'0 0.0
2017-Sep-15 05:49N 26°07' W 080°05'0 0.1
2017-Sep-15 05:25N 26°07' W 080°05'0 0.0
2017-Sep-15 04:58N 26°07' W 080°05'0 0.0
2017-Sep-15 04:25N 26°07' W 080°05'0 0.0
2017-Sep-15 03:51N 26°07' W 080°05'0 0.0
2017-Sep-15 03:30N 26°07' W 080°05'0 0.0
2017-Sep-15 03:00N 26°07' W 080°05'0 0.0
2017-Sep-15 02:27N 26°07' W 080°05'0 0.3
2017-Sep-15 01:53N 26°07' W 080°05'0 0.0
2017-Sep-15 01:20N 26°07' W 080°05'0 0.0
2017-Sep-15 00:59N 26°07' W 080°05'0 0.0
2017-Sep-15 00:29N 26°07' W 080°05'0 0.0
2017-Sep-14 23:56N 26°07' W 080°05'0 0.1
2017-Sep-14 23:22N 26°07' W 080°05'0 0.0
2017-Sep-14 22:49N 26°07' W 080°05'0 0.1
2017-Sep-14 22:28N 26°07' W 080°05'0 0.0
2017-Sep-14 21:55N 26°07' W 080°05'0 0.1
2017-Sep-14 21:25N 26°07' W 080°05'0 0.0
2017-Sep-14 20:51N 26°07' W 080°05'0 0.0
2017-Sep-14 20:30N 26°07' W 080°05'0 0.0
2017-Sep-14 19:57N 26°07' W 080°05'0 0.0
2017-Sep-14 19:27N 26°07' W 080°05'  

Dump ship's entire track history